createdAt,value
2022-10-13T00:01:18.367Z,83.60
2022-10-13T00:03:48.149Z,83.60
2022-10-13T00:06:17.538Z,84.00
2022-10-13T00:08:44.842Z,84.30
2022-10-13T00:11:14.511Z,84.10
2022-10-13T00:13:46.823Z,84.30
2022-10-13T00:16:15.675Z,84.30
2022-10-13T00:18:42.696Z,84.50
2022-10-13T00:21:12.075Z,84.50
2022-10-13T00:23:39.829Z,84.60
2022-10-13T00:26:11.369Z,85.00
2022-10-13T00:28:39.327Z,85.20
2022-10-13T00:31:35.691Z,85.20
2022-10-13T00:34:02.654Z,85.30
2022-10-13T00:36:30.189Z,85.40
2022-10-13T00:38:59.571Z,85.40
2022-10-13T00:41:29.081Z,85.40
2022-10-13T00:43:58.191Z,84.90
2022-10-13T00:46:28.013Z,84.90
2022-10-13T00:48:56.835Z,85.20
2022-10-13T00:51:29.008Z,85.30
2022-10-13T00:53:59.441Z,86.10
2022-10-13T00:56:27.820Z,85.30
2022-10-13T00:58:58.160Z,85.30
2022-10-13T01:01:24.983Z,85.50
2022-10-13T01:03:52.089Z,85.50
2022-10-13T01:06:23.803Z,85.50
2022-10-13T01:08:51.226Z,85.50
2022-10-13T01:11:35.973Z,85.50
2022-10-13T01:14:21.324Z,85.60
2022-10-13T01:17:18.488Z,85.80
2022-10-13T01:20:07.810Z,85.80
2022-10-13T01:22:46.479Z,85.80
2022-10-13T01:25:25.939Z,86.10
2022-10-13T01:28:13.952Z,86.20
2022-10-13T01:30:49.962Z,86.40
2022-10-13T01:33:35.538Z,86.30
2022-10-13T01:36:08.193Z,85.80
2022-10-13T01:38:54.073Z,86.00
2022-10-13T01:41:40.603Z,86.10
2022-10-13T01:44:16.473Z,86.00
2022-10-13T01:46:48.318Z,86.10
2022-10-13T01:49:20.093Z,86.20
2022-10-13T01:51:48.323Z,86.30
2022-10-13T01:54:15.137Z,86.60
2022-10-13T01:56:55.400Z,86.40
2022-10-13T01:59:24.415Z,86.60
2022-10-13T02:02:16.848Z,86.90
2022-10-13T02:05:14.205Z,87.10
2022-10-13T02:08:07.629Z,87.10
2022-10-13T02:11:06.188Z,87.30
2022-10-13T02:13:35.629Z,86.90
2022-10-13T02:16:04.114Z,85.90
2022-10-13T02:18:34.537Z,85.00
2022-10-13T02:21:04.711Z,84.40
2022-10-13T02:23:32.027Z,83.70
2022-10-13T02:26:00.332Z,83.40
2022-10-13T02:28:29.877Z,83.30
2022-10-13T02:30:56.850Z,83.50
2022-10-13T02:33:23.663Z,83.40
2022-10-13T02:35:53.097Z,83.50
2022-10-13T02:38:20.407Z,83.70
2022-10-13T02:40:49.762Z,83.60
2022-10-13T02:43:16.683Z,83.80
2022-10-13T02:45:45.739Z,84.00
2022-10-13T02:48:12.451Z,84.10
2022-10-13T02:50:39.246Z,84.30
2022-10-13T02:53:10.433Z,84.30
2022-10-13T02:55:40.039Z,84.50
2022-10-13T02:58:08.972Z,84.90
2022-10-13T03:00:36.037Z,85.00
2022-10-13T03:03:02.988Z,85.30
2022-10-13T03:05:29.777Z,85.40
2022-10-13T03:07:56.553Z,85.50
2022-10-13T03:10:23.390Z,85.50
2022-10-13T03:12:52.541Z,85.60
2022-10-13T03:15:19.291Z,85.40
2022-10-13T03:17:46.099Z,85.50
2022-10-13T03:20:12.972Z,85.70
2022-10-13T03:22:44.914Z,85.80
2022-10-13T03:25:15.610Z,86.10
2022-10-13T03:27:44.548Z,86.30
2022-10-13T03:30:11.625Z,86.60
2022-10-13T03:32:40.862Z,86.50
2022-10-13T03:35:08.248Z,86.70
2022-10-13T03:37:37.233Z,86.80
2022-10-13T03:40:04.491Z,87.00
2022-10-13T03:42:31.216Z,87.10
2022-10-13T03:45:00.448Z,87.20
2022-10-13T03:47:27.415Z,87.30
2022-10-13T03:49:56.549Z,87.50
2022-10-13T03:52:25.893Z,87.60
2022-10-13T03:54:52.795Z,88.70
2022-10-13T03:57:19.548Z,88.00
2022-10-13T03:59:46.368Z,87.70
2022-10-13T04:02:13.327Z,87.40
2022-10-13T04:04:44.772Z,86.80
2022-10-13T04:07:11.572Z,86.30
2022-10-13T04:09:40.607Z,85.90
2022-10-13T04:12:08.013Z,85.10
2022-10-13T04:14:34.788Z,84.30
2022-10-13T04:17:06.481Z,83.60
2022-10-13T04:19:33.293Z,83.20
2022-10-13T04:22:00.081Z,82.60
2022-10-13T04:24:26.892Z,82.10
2022-10-13T04:26:53.694Z,81.50
2022-10-13T04:29:20.531Z,81.30
2022-10-13T04:31:47.340Z,81.30
2022-10-13T04:34:14.172Z,80.60
2022-10-13T04:36:41.008Z,80.30
2022-10-13T04:39:07.811Z,80.30
2022-10-13T04:41:35.128Z,79.90
2022-10-13T04:44:02.442Z,79.80
2022-10-13T04:46:29.341Z,79.70
2022-10-13T04:48:57.591Z,79.40
2022-10-13T04:51:25.534Z,79.30
2022-10-13T04:54:01.404Z,79.00
2022-10-13T04:56:31.375Z,78.90
2022-10-13T04:59:00.678Z,78.90
2022-10-13T05:01:27.440Z,78.70
2022-10-13T05:04:00.243Z,78.60
2022-10-13T05:06:32.239Z,78.40
2022-10-13T05:08:59.691Z,78.10
2022-10-13T05:11:28.362Z,78.90
2022-10-13T05:13:56.517Z,78.00
2022-10-13T05:16:26.230Z,78.20
2022-10-13T05:18:54.953Z,78.00
2022-10-13T05:21:26.876Z,77.80
2022-10-13T05:23:55.889Z,77.90
2022-10-13T05:26:28.786Z,77.80
2022-10-13T05:28:57.046Z,77.70
2022-10-13T05:31:25.457Z,77.70
2022-10-13T05:33:52.912Z,77.70
2022-10-13T05:36:30.798Z,77.80
2022-10-13T05:39:02.173Z,77.90
2022-10-13T05:41:30.246Z,77.90
2022-10-13T05:44:00.389Z,77.70
2022-10-13T05:46:27.432Z,77.70
2022-10-13T05:48:54.573Z,77.60
2022-10-13T05:51:35.152Z,77.60
2022-10-13T05:54:18.643Z,77.40
2022-10-13T05:56:54.104Z,77.30
2022-10-13T05:59:26.934Z,77.00
2022-10-13T06:01:57.221Z,76.90
2022-10-13T06:04:31.822Z,76.90
2022-10-13T06:06:58.631Z,76.70
2022-10-13T06:09:26.103Z,76.70
2022-10-13T06:11:52.887Z,76.70
2022-10-13T06:14:21.845Z,76.60
2022-10-13T06:16:48.652Z,76.70
2022-10-13T06:19:15.551Z,76.60
2022-10-13T06:21:44.438Z,76.80
2022-10-13T06:24:11.232Z,76.90
2022-10-13T06:26:37.963Z,77.10
2022-10-13T06:29:06.982Z,77.50
2022-10-13T06:31:33.761Z,77.70
2022-10-13T06:34:03.182Z,78.10
2022-10-13T06:36:29.976Z,78.30
2022-10-13T06:38:56.883Z,78.50
2022-10-13T06:41:25.807Z,78.70
2022-10-13T06:43:55.051Z,78.90
2022-10-13T06:46:21.911Z,79.10
2022-10-13T06:48:52.320Z,79.30
2022-10-13T06:51:19.127Z,79.20
2022-10-13T06:53:46.126Z,79.30
2022-10-13T06:56:12.971Z,79.30
2022-10-13T06:58:39.782Z,79.40
2022-10-13T07:01:07.322Z,79.40
2022-10-13T07:03:36.672Z,79.30
2022-10-13T07:06:05.582Z,78.70
2022-10-13T07:08:35.153Z,78.20
2022-10-13T07:11:15.857Z,77.90
2022-10-13T07:13:46.276Z,77.70
2022-10-13T07:16:14.785Z,77.50
2022-10-13T07:18:42.000Z,77.30
2022-10-13T07:21:09.337Z,77.30
2022-10-13T07:23:38.674Z,77.30
2022-10-13T07:26:14.558Z,76.60
2022-10-13T07:28:41.923Z,76.00
2022-10-13T07:31:15.394Z,75.50
2022-10-13T07:33:44.373Z,75.00
2022-10-13T07:36:16.458Z,75.00
2022-10-13T07:38:43.306Z,74.90
2022-10-13T07:41:14.328Z,74.50
2022-10-13T07:43:41.931Z,74.20
2022-10-13T07:46:16.026Z,73.90
2022-10-13T07:48:42.841Z,73.60
2022-10-13T07:51:14.596Z,73.00
2022-10-13T07:53:42.699Z,73.00
2022-10-13T07:56:12.133Z,72.80
2022-10-13T07:58:42.846Z,72.10
2022-10-13T08:01:13.043Z,71.60
2022-10-13T08:03:43.042Z,70.20
2022-10-13T08:06:14.521Z,69.90
2022-10-13T08:08:41.427Z,69.30
2022-10-13T08:11:13.493Z,68.60
2022-10-13T08:13:43.141Z,68.00
2022-10-13T08:16:12.504Z,67.20
2022-10-13T08:18:39.340Z,66.40
2022-10-13T08:23:53.397Z,64.20
2022-10-13T08:26:24.120Z,63.20
2022-10-13T08:31:42.030Z,61.60
2022-10-13T08:34:10.476Z,61.50
2022-10-13T08:36:38.029Z,60.90
2022-10-13T08:39:07.333Z,60.20
2022-10-13T08:41:40.367Z,59.70
2022-10-13T08:47:47.803Z,58.50
2022-10-13T08:50:19.218Z,58.50
2022-10-13T08:52:54.753Z,57.30
2022-10-13T08:55:36.868Z,56.60
2022-10-13T08:58:15.416Z,55.90
2022-10-13T09:00:44.591Z,55.80
2022-10-13T09:03:23.509Z,55.10
2022-10-13T09:06:18.381Z,55.20
2022-10-13T09:08:58.627Z,54.70
2022-10-13T09:11:40.900Z,53.80
2022-10-13T09:14:35.099Z,52.80
2022-10-13T09:17:25.031Z,52.00
2022-10-13T09:20:27.605Z,51.20
2022-10-13T09:23:03.423Z,50.70
2022-10-13T09:25:38.807Z,50.10
2022-10-13T09:28:15.024Z,50.00
2022-10-13T09:30:49.365Z,50.30
2022-10-13T09:33:20.935Z,49.00
2022-10-13T09:35:58.505Z,48.60
2022-10-13T09:38:26.988Z,48.10
2022-10-13T09:41:04.789Z,47.50
2022-10-13T09:43:33.316Z,47.00
2022-10-13T09:46:11.448Z,47.00
2022-10-13T09:48:42.554Z,46.50
2022-10-13T09:51:32.880Z,45.90
2022-10-13T09:53:59.873Z,45.50
2022-10-13T09:56:49.270Z,44.90
2022-10-13T09:59:59.800Z,44.70
2022-10-13T10:02:44.202Z,44.20
2022-10-13T10:05:29.904Z,43.90
2022-10-13T10:08:04.068Z,44.30
2022-10-13T10:10:37.040Z,43.90
2022-10-13T10:13:04.415Z,44.00
2022-10-13T10:15:57.299Z,44.00
2022-10-13T10:18:51.905Z,43.80
2022-10-13T10:21:38.636Z,44.30
2022-10-13T10:24:34.613Z,44.10
2022-10-13T10:27:12.386Z,44.30
2022-10-13T10:29:51.183Z,44.00
2022-10-13T10:32:38.305Z,44.10
2022-10-13T10:35:44.197Z,44.20
2022-10-13T10:38:28.174Z,44.50
2022-10-13T10:41:26.475Z,45.00
2022-10-13T10:44:01.078Z,45.40
2022-10-13T10:46:49.176Z,45.70
2022-10-13T10:49:22.487Z,45.30
2022-10-13T10:51:56.828Z,44.40
2022-10-13T10:54:54.042Z,43.90
2022-10-13T10:57:29.948Z,43.60
2022-10-13T11:00:16.602Z,42.70
2022-10-13T11:03:01.249Z,42.80
2022-10-13T11:05:58.679Z,42.10
2022-10-13T11:08:47.131Z,42.30
2022-10-13T11:11:24.912Z,41.90
2022-10-13T11:14:15.524Z,42.30
2022-10-13T11:17:10.536Z,42.00
2022-10-13T11:19:39.200Z,41.50
2022-10-13T11:22:05.928Z,42.00
2022-10-13T11:24:41.295Z,41.70
2022-10-13T11:27:08.222Z,41.40
2022-10-13T11:29:56.862Z,41.50
2022-10-13T11:32:26.985Z,41.70
2022-10-13T11:35:06.688Z,42.20
2022-10-13T11:38:17.798Z,43.00
2022-10-13T11:41:17.594Z,42.90
2022-10-13T11:43:56.297Z,43.40
2022-10-13T11:46:54.964Z,43.40
2022-10-13T11:49:42.569Z,43.00
2022-10-13T11:52:30.697Z,42.90
2022-10-13T11:55:16.786Z,42.60
2022-10-13T11:57:44.099Z,42.00
2022-10-13T12:00:17.255Z,41.40
2022-10-13T12:02:52.761Z,40.30
2022-10-13T12:05:27.305Z,39.50
2022-10-13T12:07:58.837Z,39.10
2022-10-13T12:10:35.489Z,38.60
2022-10-13T12:13:04.327Z,38.60
2022-10-13T12:15:42.003Z,38.10
2022-10-13T12:18:27.620Z,37.50
2022-10-13T12:20:55.533Z,36.60
2022-10-13T12:23:24.505Z,36.40
2022-10-13T12:25:57.313Z,38.00
2022-10-13T12:28:27.615Z,38.40
2022-10-13T12:30:57.898Z,39.70
2022-10-13T12:33:29.167Z,40.20
2022-10-13T12:35:59.235Z,40.50
2022-10-13T12:38:28.307Z,40.90
2022-10-13T12:40:55.321Z,40.30
2022-10-13T12:43:25.361Z,39.70
2022-10-13T12:45:52.435Z,38.00
2022-10-13T12:48:43.418Z,36.60
2022-10-13T12:51:13.201Z,33.00
2022-10-13T12:53:40.012Z,30.30
2022-10-13T12:56:18.497Z,29.20
2022-10-13T12:58:45.502Z,28.20
2022-10-13T13:01:13.293Z,30.10
2022-10-13T13:03:42.778Z,31.90
2022-10-13T13:06:22.246Z,33.30
2022-10-13T13:09:27.651Z,35.30
2022-10-13T13:12:14.805Z,36.20
2022-10-13T13:14:44.178Z,37.60
2022-10-13T13:17:27.597Z,38.10
2022-10-13T13:20:27.119Z,39.00
2022-10-13T13:22:54.867Z,39.70
2022-10-13T13:25:21.815Z,40.30
2022-10-13T13:27:51.277Z,40.60
2022-10-13T13:30:21.074Z,40.80
2022-10-13T13:32:48.839Z,40.70
2022-10-13T13:35:16.049Z,40.00
2022-10-13T13:37:49.834Z,39.60
2022-10-13T13:40:22.762Z,39.00
2022-10-13T13:42:49.770Z,39.40
2022-10-13T13:45:19.194Z,39.40
2022-10-13T13:47:46.690Z,40.10
2022-10-13T13:50:37.388Z,39.80
2022-10-13T13:53:05.380Z,39.70
2022-10-13T13:55:35.724Z,39.50
2022-10-13T13:58:04.899Z,39.10
2022-10-13T14:00:31.848Z,38.80
2022-10-13T14:03:00.935Z,38.20
2022-10-13T14:05:28.270Z,37.50
2022-10-13T14:07:59.074Z,37.30
2022-10-13T14:10:26.499Z,36.50
2022-10-13T14:12:53.708Z,35.70
2022-10-13T14:15:23.434Z,34.50
2022-10-13T14:17:53.711Z,34.40
2022-10-13T14:20:22.115Z,34.40
2022-10-13T14:22:49.144Z,34.60
2022-10-13T14:25:18.482Z,35.30
2022-10-13T14:27:50.080Z,36.50
2022-10-13T14:30:19.612Z,38.20
2022-10-13T14:32:48.903Z,39.00
2022-10-13T14:35:18.305Z,39.20
2022-10-13T14:37:45.329Z,39.40
2022-10-13T14:40:12.238Z,38.90
2022-10-13T14:42:39.685Z,38.50
2022-10-13T14:45:07.304Z,38.30
2022-10-13T14:47:34.082Z,38.10
2022-10-13T14:50:03.039Z,38.20
2022-10-13T14:52:29.825Z,38.20
2022-10-13T14:54:56.683Z,37.30
2022-10-13T14:57:23.707Z,37.00
2022-10-13T14:59:55.752Z,37.20
2022-10-13T15:02:27.336Z,37.70
2022-10-13T15:04:54.083Z,37.80
2022-10-13T15:07:23.682Z,38.50
2022-10-13T15:10:04.243Z,38.90
2022-10-13T15:12:32.745Z,39.40
2022-10-13T15:14:59.522Z,40.40
2022-10-13T15:17:26.295Z,41.50
2022-10-13T15:19:53.057Z,42.40
2022-10-13T15:22:20.274Z,43.50
2022-10-13T15:24:50.107Z,44.20
2022-10-13T15:27:16.943Z,44.90
2022-10-13T15:29:46.036Z,45.40
2022-10-13T15:32:18.160Z,46.20
2022-10-13T15:34:45.916Z,46.30
2022-10-13T15:37:12.928Z,47.60
2022-10-13T15:39:40.004Z,48.70
2022-10-13T15:42:13.299Z,49.80
2022-10-13T15:45:08.263Z,49.80
2022-10-13T15:47:26.816Z,50.60
2022-10-13T15:49:54.108Z,51.60
2022-10-13T15:52:23.776Z,52.10
2022-10-13T15:54:51.590Z,52.80
2022-10-13T15:57:18.606Z,53.40
2022-10-13T15:59:45.334Z,54.20
2022-10-13T16:02:15.255Z,54.60
2022-10-13T16:04:42.442Z,55.10
2022-10-13T16:07:09.197Z,55.50
2022-10-13T16:09:38.133Z,55.80
2022-10-13T16:12:07.197Z,55.90
2022-10-13T16:14:34.160Z,56.40
2022-10-13T16:17:01.151Z,56.80
2022-10-13T16:19:28.248Z,56.70
2022-10-13T16:21:55.131Z,57.30
2022-10-13T16:24:21.980Z,57.50
2022-10-13T16:26:48.892Z,58.00
2022-10-13T16:29:15.758Z,58.60
2022-10-13T16:31:42.601Z,58.70
2022-10-13T16:34:12.029Z,59.50
2022-10-13T16:36:41.608Z,59.60
2022-10-13T16:39:08.558Z,60.10
2022-10-13T16:41:38.928Z,60.50
2022-10-13T16:44:08.142Z,61.30
2022-10-13T16:46:37.490Z,61.60
2022-10-13T16:49:04.429Z,62.40
2022-10-13T16:51:31.168Z,62.80
2022-10-13T16:54:03.932Z,63.90
2022-10-13T16:56:31.727Z,64.20
2022-10-13T16:59:06.420Z,64.30
2022-10-13T17:01:37.589Z,64.20
2022-10-13T17:04:04.901Z,64.50
2022-10-13T17:06:32.300Z,64.70
2022-10-13T17:09:00.659Z,65.30
2022-10-13T17:11:30.065Z,65.60
2022-10-13T17:13:58.369Z,66.10
2022-10-13T17:16:25.815Z,66.30
2022-10-13T17:18:55.068Z,66.80
2022-10-13T17:21:24.263Z,67.10
2022-10-13T17:23:53.627Z,67.50
2022-10-13T17:26:22.580Z,68.10
2022-10-13T17:28:49.495Z,68.60
2022-10-13T17:31:18.821Z,69.00
2022-10-13T17:33:46.404Z,69.40
2022-10-13T17:36:19.448Z,70.00
2022-10-13T17:38:49.127Z,70.50
2022-10-13T17:41:19.752Z,71.30
2022-10-13T17:43:49.157Z,71.70
2022-10-13T17:49:03.526Z,72.20
2022-10-13T17:51:30.544Z,72.50
2022-10-13T17:53:59.228Z,73.30
2022-10-13T17:56:28.626Z,73.60
2022-10-13T17:58:55.433Z,73.50
2022-10-13T18:01:27.060Z,74.00
2022-10-13T18:03:56.483Z,74.40
2022-10-13T18:06:24.013Z,74.60
2022-10-13T18:08:51.396Z,75.10
2022-10-13T18:11:23.598Z,75.50
2022-10-13T18:13:51.520Z,75.90
2022-10-13T18:16:21.885Z,76.20
2022-10-13T18:18:50.185Z,76.50
2022-10-13T18:21:19.613Z,76.70
2022-10-13T18:23:46.664Z,76.90
2022-10-13T18:26:17.132Z,77.10
2022-10-13T18:28:45.542Z,77.30
2022-10-13T18:31:14.977Z,77.40
2022-10-13T18:33:42.001Z,77.60
2022-10-13T18:36:23.389Z,78.00
2022-10-13T18:38:51.680Z,78.20
2022-10-13T18:41:20.583Z,78.30
2022-10-13T18:43:47.443Z,78.70
2022-10-13T18:46:15.491Z,78.70
2022-10-13T18:48:44.770Z,79.00
2022-10-13T18:51:13.886Z,79.30
2022-10-13T18:53:42.779Z,79.50
2022-10-13T18:56:16.141Z,79.90
2022-10-13T18:58:45.830Z,80.40
2022-10-13T19:01:16.984Z,80.80
2022-10-13T19:03:44.638Z,81.00
2022-10-13T19:06:13.827Z,81.30
2022-10-13T19:08:41.309Z,81.50
2022-10-13T19:11:17.941Z,81.70
2022-10-13T19:13:45.297Z,82.90
2022-10-13T19:16:13.563Z,82.50
2022-10-13T19:18:40.930Z,82.70
2022-10-13T19:21:07.880Z,82.80
2022-10-13T19:23:35.021Z,82.80
2022-10-13T19:26:15.136Z,82.80
2022-10-13T19:28:45.467Z,83.30
2022-10-13T19:31:19.293Z,83.30
2022-10-13T19:33:50.260Z,83.70
2022-10-13T19:36:24.575Z,83.90
2022-10-13T19:38:54.658Z,83.90
2022-10-13T19:41:22.048Z,84.10
2022-10-13T19:43:49.953Z,84.10
2022-10-13T19:46:19.556Z,84.30
2022-10-13T19:48:46.900Z,84.50
2022-10-13T19:51:14.380Z,84.70
2022-10-13T19:53:43.922Z,84.80
2022-10-13T19:56:23.643Z,85.00
2022-10-13T19:58:51.957Z,85.10
2022-10-13T20:01:19.885Z,85.20
2022-10-13T20:03:47.409Z,85.90
2022-10-13T20:06:14.610Z,85.30
2022-10-13T20:08:41.553Z,85.50
2022-10-13T20:11:10.763Z,85.60
2022-10-13T20:13:37.872Z,86.80
2022-10-13T20:16:13.612Z,86.90
2022-10-13T20:18:41.389Z,87.90
2022-10-13T20:21:11.594Z,87.40
2022-10-13T20:23:40.650Z,87.70
2022-10-13T20:26:12.391Z,88.00
2022-10-13T20:28:43.019Z,88.30
2022-10-13T20:31:12.788Z,88.40
2022-10-13T20:33:40.371Z,88.40
2022-10-13T20:36:10.513Z,89.00
2022-10-13T20:38:37.677Z,89.40
2022-10-13T20:41:17.497Z,89.60
2022-10-13T20:43:46.007Z,89.80
2022-10-13T20:46:16.015Z,90.10
2022-10-13T20:49:09.317Z,90.20
2022-10-13T20:51:30.214Z,90.40
2022-10-13T20:53:59.723Z,90.70
2022-10-13T20:56:27.231Z,90.70
2022-10-13T20:58:54.431Z,90.90
2022-10-13T21:01:22.675Z,91.00
2022-10-13T21:03:53.790Z,91.20
2022-10-13T21:06:24.472Z,91.20
2022-10-13T21:08:51.928Z,91.30
2022-10-13T21:11:21.144Z,91.40
2022-10-13T21:13:49.232Z,91.50
2022-10-13T21:16:19.591Z,91.60
2022-10-13T21:18:48.960Z,91.80
2022-10-13T21:21:19.455Z,91.80
2022-10-13T21:23:49.186Z,91.90
2022-10-13T21:26:21.341Z,92.00
2022-10-13T21:28:50.019Z,92.20
2022-10-13T21:31:19.031Z,92.30
2022-10-13T21:33:46.038Z,92.30
2022-10-13T21:36:26.909Z,92.50
2022-10-13T21:38:58.662Z,92.60
2022-10-13T21:41:26.311Z,92.70
2022-10-13T21:43:58.582Z,92.90
2022-10-13T21:46:30.042Z,93.10
2022-10-13T21:48:58.981Z,93.30
2022-10-13T21:51:29.480Z,93.20
2022-10-13T21:54:01.953Z,93.30
2022-10-13T21:56:30.052Z,93.30
2022-10-13T21:58:59.047Z,93.40
2022-10-13T22:01:25.933Z,93.60
2022-10-13T22:03:56.259Z,93.80
2022-10-13T22:06:23.225Z,93.90
2022-10-13T22:08:51.836Z,94.10
2022-10-13T22:11:19.619Z,94.20
2022-10-13T22:13:48.555Z,94.20
2022-10-13T22:16:21.798Z,94.30
2022-10-13T22:18:52.461Z,94.50
2022-10-13T22:21:24.513Z,94.60
2022-10-13T22:23:51.353Z,94.70
2022-10-13T22:26:19.260Z,94.80
2022-10-13T22:28:48.229Z,94.90
2022-10-13T22:31:15.217Z,94.90
2022-10-13T22:33:46.768Z,95.00
2022-10-13T22:36:21.035Z,95.50
2022-10-13T22:38:52.186Z,95.10
2022-10-13T22:41:21.889Z,95.20
2022-10-13T22:43:50.768Z,95.30
2022-10-13T22:46:21.558Z,95.30
2022-10-13T22:48:48.992Z,95.40
2022-10-13T22:51:19.653Z,95.40
2022-10-13T22:53:51.841Z,95.50
2022-10-13T22:56:27.279Z,95.50
2022-10-13T22:58:57.768Z,95.70
2022-10-13T23:01:25.132Z,95.70
2022-10-13T23:03:54.321Z,95.90
2022-10-13T23:06:24.302Z,96.00
2022-10-13T23:08:53.720Z,96.20
2022-10-13T23:11:23.341Z,96.20
2022-10-13T23:13:50.441Z,96.30
2022-10-13T23:16:26.877Z,96.40
2022-10-13T23:18:53.805Z,96.40
2022-10-13T23:21:22.494Z,96.50
2022-10-13T23:24:01.423Z,96.60
2022-10-13T23:26:29.512Z,96.70
2022-10-13T23:28:59.857Z,96.80
2022-10-13T23:31:28.190Z,96.80
2022-10-13T23:33:55.688Z,96.80
2022-10-13T23:36:25.325Z,96.90
2022-10-13T23:39:00.569Z,96.90
2022-10-13T23:41:30.192Z,97.10
2022-10-13T23:43:57.605Z,97.10
2022-10-13T23:46:27.794Z,97.20
2022-10-13T23:48:54.883Z,97.30
2022-10-13T23:51:26.334Z,97.30
2022-10-13T23:53:54.331Z,97.40
2022-10-13T23:56:22.005Z,97.40
2022-10-13T23:58:49.587Z,97.60
